createdAt,value
2022-08-28T00:00:45.424Z,2.17
2022-08-28T00:03:13.728Z,2.13
2022-08-28T00:05:43.278Z,2.30
2022-08-28T00:08:12.381Z,2.38
2022-08-28T00:10:40.360Z,2.28
2022-08-28T00:13:09.153Z,2.45
2022-08-28T00:15:39.021Z,2.25
2022-08-28T00:18:06.431Z,2.50
2022-08-28T00:20:34.779Z,2.50
2022-08-28T00:23:02.254Z,2.20
2022-08-28T00:25:31.653Z,2.40
2022-08-28T00:28:05.192Z,2.38
2022-08-28T00:30:38.089Z,2.30
2022-08-28T00:33:12.985Z,2.50
2022-08-28T00:35:41.203Z,2.00
2022-08-28T00:38:09.800Z,2.40
2022-08-28T00:40:38.229Z,2.60
2022-08-28T00:43:06.544Z,1.98
2022-08-28T00:45:39.286Z,2.67
2022-08-28T00:48:06.370Z,2.35
2022-08-28T00:50:56.766Z,2.35
2022-08-28T00:53:29.906Z,2.42
2022-08-28T00:56:01.369Z,2.28
2022-08-28T00:58:29.046Z,2.00
2022-08-28T01:00:55.916Z,2.67
2022-08-28T01:03:25.046Z,1.83
2022-08-28T01:05:53.772Z,2.13
2022-08-28T01:08:20.522Z,2.13
2022-08-28T01:10:54.712Z,2.00
2022-08-28T01:13:23.397Z,1.83
2022-08-28T01:15:51.266Z,2.40
2022-08-28T01:18:19.419Z,2.50
2022-08-28T01:20:59.116Z,3.20
2022-08-28T01:23:45.719Z,2.05
2022-08-28T01:26:12.775Z,2.25
2022-08-28T01:28:40.801Z,2.58
2022-08-28T01:31:11.522Z,2.65
2022-08-28T01:33:42.348Z,2.55
2022-08-28T01:36:11.988Z,2.28
2022-08-28T01:38:40.291Z,2.55
2022-08-28T01:41:07.339Z,2.65
2022-08-28T01:43:34.059Z,2.42
2022-08-28T01:46:04.384Z,2.53
2022-08-28T01:48:34.956Z,2.80
2022-08-28T01:51:02.821Z,2.25
2022-08-28T01:53:33.020Z,2.42
2022-08-28T01:56:01.653Z,3.10
2022-08-28T01:58:30.219Z,2.63
2022-08-28T02:00:57.450Z,2.67
2022-08-28T02:03:24.178Z,2.53
2022-08-28T02:05:52.122Z,2.85
2022-08-28T02:08:19.367Z,2.80
2022-08-28T02:10:47.228Z,2.83
2022-08-28T02:13:14.221Z,2.55
2022-08-28T02:15:43.169Z,3.22
2022-08-28T02:18:10.473Z,2.88
2022-08-28T02:20:37.861Z,2.53
2022-08-28T02:23:05.980Z,2.70
2022-08-28T02:25:33.106Z,3.30
2022-08-28T02:27:59.983Z,2.35
2022-08-28T02:30:26.873Z,3.28
2022-08-28T02:32:54.084Z,3.05
2022-08-28T02:35:22.663Z,2.65
2022-08-28T02:37:49.906Z,2.25
2022-08-28T02:40:19.582Z,2.85
2022-08-28T02:42:46.336Z,2.85
2022-08-28T02:45:14.663Z,3.08
2022-08-28T02:47:43.599Z,3.05
2022-08-28T02:50:13.050Z,3.25
2022-08-28T02:52:41.269Z,2.92
2022-08-28T02:55:09.536Z,3.20
2022-08-28T02:57:36.420Z,3.13
2022-08-28T03:00:12.101Z,3.25
2022-08-28T03:02:40.711Z,3.08
2022-08-28T03:05:08.955Z,3.30
2022-08-28T03:07:35.824Z,2.97
2022-08-28T03:10:03.395Z,3.05
2022-08-28T03:12:30.045Z,3.60
2022-08-28T03:14:56.835Z,3.60
2022-08-28T03:17:23.557Z,3.72
2022-08-28T03:19:51.014Z,3.83
2022-08-28T03:22:39.113Z,2.83
2022-08-28T03:25:07.091Z,3.17
2022-08-28T03:27:34.135Z,3.63
2022-08-28T03:30:02.635Z,3.65
2022-08-28T03:32:29.540Z,3.38
2022-08-28T03:34:56.255Z,3.53
2022-08-28T03:37:22.955Z,3.53
2022-08-28T03:39:49.853Z,3.75
2022-08-28T03:42:17.231Z,3.25
2022-08-28T03:44:44.013Z,3.58
2022-08-28T03:47:12.193Z,3.63
2022-08-28T03:49:39.773Z,3.80
2022-08-28T03:52:06.527Z,3.28
2022-08-28T03:54:33.184Z,3.60
2022-08-28T03:57:00.368Z,4.07
2022-08-28T03:59:33.511Z,3.83
2022-08-28T04:02:00.400Z,4.15
2022-08-28T04:04:27.819Z,4.00
2022-08-28T04:06:54.509Z,4.65
2022-08-28T04:09:21.213Z,4.22
2022-08-28T04:11:47.842Z,3.70
2022-08-28T04:14:14.485Z,4.30
2022-08-28T04:16:41.461Z,3.65
2022-08-28T04:19:08.166Z,3.95
2022-08-28T04:21:34.806Z,3.63
2022-08-28T04:24:01.498Z,3.72
2022-08-28T04:26:29.177Z,3.65
2022-08-28T04:28:56.361Z,3.50
2022-08-28T04:31:32.401Z,3.47
2022-08-28T04:34:04.925Z,3.40
2022-08-28T04:36:33.523Z,3.42
2022-08-28T04:39:01.519Z,3.45
2022-08-28T04:41:28.777Z,3.17
2022-08-28T04:43:57.428Z,3.90
2022-08-28T04:46:24.980Z,3.53
2022-08-28T04:48:52.115Z,3.55
2022-08-28T04:51:20.297Z,3.45
2022-08-28T04:53:47.389Z,3.72
2022-08-28T04:56:14.922Z,3.25
2022-08-28T04:58:43.633Z,3.70
2022-08-28T05:01:18.644Z,3.95
2022-08-28T05:03:47.032Z,4.05
2022-08-28T05:06:15.919Z,3.35
2022-08-28T05:08:42.860Z,4.20
2022-08-28T05:11:12.251Z,3.58
2022-08-28T05:13:38.992Z,3.40
2022-08-28T05:16:06.322Z,3.78
2022-08-28T05:18:33.326Z,3.83
2022-08-28T05:21:01.750Z,3.90
2022-08-28T05:23:29.165Z,3.67
2022-08-28T05:25:56.254Z,4.03
2022-08-28T05:28:26.315Z,3.83
2022-08-28T05:30:53.099Z,3.55
2022-08-28T05:33:20.093Z,4.15
2022-08-28T05:35:47.555Z,3.78
2022-08-28T05:38:16.579Z,4.13
2022-08-28T05:40:49.023Z,3.80
2022-08-28T05:43:16.989Z,3.97
2022-08-28T05:45:43.908Z,4.22
2022-08-28T05:48:11.827Z,4.57
2022-08-28T05:50:39.440Z,3.97
2022-08-28T05:53:11.265Z,4.18
2022-08-28T05:55:40.749Z,5.68
2022-08-28T05:58:26.187Z,4.28
2022-08-28T06:00:52.841Z,4.82
2022-08-28T06:03:19.504Z,5.85
2022-08-28T06:05:46.208Z,5.18
2022-08-28T06:08:13.359Z,3.90
2022-08-28T06:10:44.713Z,4.95
2022-08-28T06:15:45.433Z,4.85
2022-08-28T06:18:13.262Z,4.68
2022-08-28T06:20:42.202Z,5.63
2022-08-28T06:23:13.264Z,4.85
2022-08-28T06:25:41.157Z,4.72
2022-08-28T06:28:10.990Z,5.13
2022-08-28T06:30:40.156Z,5.57
2022-08-28T06:33:09.577Z,5.20
2022-08-28T06:35:41.693Z,6.07
2022-08-28T06:38:09.260Z,5.80
2022-08-28T06:40:46.726Z,6.38
2022-08-28T06:43:15.271Z,6.05
2022-08-28T06:45:43.296Z,5.28
2022-08-28T06:48:11.154Z,6.85
2022-08-28T06:50:42.041Z,6.93
2022-08-28T06:53:10.213Z,7.35
2022-08-28T06:55:37.859Z,8.15
2022-08-28T06:58:09.070Z,7.25
2022-08-28T07:00:36.903Z,8.93
2022-08-28T07:03:07.812Z,9.15
2022-08-28T07:05:34.957Z,9.98
2022-08-28T07:08:02.167Z,9.27
2022-08-28T07:10:31.250Z,9.85
2022-08-28T07:13:00.558Z,9.30
2022-08-28T07:15:27.886Z,9.70
2022-08-28T07:17:54.967Z,10.45
2022-08-28T07:20:23.438Z,10.88
2022-08-28T07:22:54.079Z,10.75
2022-08-28T07:25:26.693Z,13.13
2022-08-28T07:27:53.781Z,12.07
2022-08-28T07:30:20.968Z,13.25
2022-08-28T07:32:49.744Z,13.57
2022-08-28T07:35:17.376Z,14.82
2022-08-28T07:37:44.492Z,14.80
2022-08-28T07:40:12.239Z,13.60
2022-08-28T07:42:58.016Z,14.95
2022-08-28T07:45:26.097Z,12.38
2022-08-28T07:47:53.158Z,11.75
2022-08-28T07:50:20.351Z,11.13
2022-08-28T07:52:47.416Z,11.02
2022-08-28T07:55:14.568Z,11.23
2022-08-28T07:57:43.164Z,9.43
2022-08-28T08:00:11.088Z,9.60
2022-08-28T08:02:38.140Z,7.78
2022-08-28T08:05:05.494Z,7.47
2022-08-28T08:07:33.152Z,7.13
2022-08-28T08:10:00.233Z,7.35
2022-08-28T08:12:29.354Z,6.93
2022-08-28T08:14:56.620Z,7.68
2022-08-28T08:17:23.700Z,7.75
2022-08-28T08:19:50.889Z,7.13
2022-08-28T08:22:18.325Z,8.00
2022-08-28T08:24:45.499Z,7.97
2022-08-28T08:27:13.068Z,8.35
2022-08-28T08:29:40.166Z,8.02
2022-08-28T08:32:08.903Z,8.00
2022-08-28T08:34:37.670Z,7.82
2022-08-28T08:37:05.734Z,7.47
2022-08-28T08:39:33.780Z,7.95
2022-08-28T08:42:01.748Z,8.98
2022-08-28T08:44:43.113Z,9.00
2022-08-28T08:47:17.578Z,10.00
2022-08-28T08:49:57.212Z,8.30
2022-08-28T08:52:33.391Z,8.27
2022-08-28T08:55:09.935Z,8.10
2022-08-28T08:57:38.034Z,9.02
2022-08-28T09:00:15.182Z,9.68
2022-08-28T09:02:50.888Z,9.07
2022-08-28T09:05:20.628Z,9.73
2022-08-28T09:07:56.771Z,9.48
2022-08-28T09:10:25.253Z,9.77
2022-08-28T09:12:55.188Z,10.82
2022-08-28T09:15:33.788Z,10.43
2022-08-28T09:18:21.322Z,11.65
2022-08-28T09:20:56.134Z,12.77
2022-08-28T09:23:24.239Z,15.75
2022-08-28T09:25:53.933Z,11.90
2022-08-28T09:28:23.157Z,13.48
2022-08-28T09:30:55.463Z,14.63
2022-08-28T09:33:48.657Z,12.23
2022-08-28T09:36:21.903Z,13.18
2022-08-28T09:39:04.227Z,13.70
2022-08-28T09:41:50.122Z,14.23
2022-08-28T09:44:17.541Z,12.65
2022-08-28T09:46:49.852Z,12.68
2022-08-28T09:49:22.558Z,13.93
2022-08-28T09:51:50.536Z,15.00
2022-08-28T09:54:20.532Z,13.32
2022-08-28T09:56:48.747Z,14.55
2022-08-28T09:59:17.226Z,15.63
2022-08-28T10:01:50.089Z,15.02
2022-08-28T10:04:17.851Z,15.15
2022-08-28T10:06:49.816Z,16.08
2022-08-28T10:09:37.209Z,15.82
2022-08-28T10:12:31.172Z,15.80
2022-08-28T10:15:17.967Z,15.85
2022-08-28T10:17:45.018Z,17.42
2022-08-28T10:20:15.504Z,16.75
2022-08-28T10:22:54.914Z,17.20
2022-08-28T10:25:22.036Z,17.38
2022-08-28T10:27:53.565Z,18.50
2022-08-28T10:30:22.954Z,17.92
2022-08-28T10:33:10.339Z,19.27
2022-08-28T10:35:57.692Z,17.85
2022-08-28T10:38:30.351Z,16.70
2022-08-28T10:41:06.665Z,18.08
2022-08-28T10:43:35.827Z,18.42
2022-08-28T10:46:06.845Z,17.55
2022-08-28T10:48:39.026Z,17.25
2022-08-28T10:51:14.357Z,18.15
2022-08-28T10:53:44.521Z,20.20
2022-08-28T10:56:16.250Z,17.35
2022-08-28T10:58:43.409Z,17.95
2022-08-28T11:01:13.523Z,18.35
2022-08-28T11:03:46.093Z,19.05
2022-08-28T11:06:30.449Z,16.75
2022-08-28T11:08:59.564Z,16.10
2022-08-28T11:11:52.841Z,17.00
2022-08-28T11:14:48.441Z,16.25
2022-08-28T11:17:27.777Z,17.08
2022-08-28T11:20:04.352Z,15.90
2022-08-28T11:22:36.500Z,16.90
2022-08-28T11:25:18.809Z,17.52
2022-08-28T11:28:14.589Z,17.05
2022-08-28T11:30:42.813Z,18.02
2022-08-28T11:33:30.502Z,16.85
2022-08-28T11:35:57.602Z,17.75
2022-08-28T11:38:43.373Z,16.77
2022-08-28T11:41:22.487Z,17.17
2022-08-28T11:43:52.354Z,16.20
2022-08-28T11:46:33.415Z,15.98
2022-08-28T11:49:02.183Z,16.95
2022-08-28T11:51:38.479Z,15.13
2022-08-28T11:54:21.227Z,17.35
2022-08-28T11:56:54.517Z,16.25
2022-08-28T11:59:47.661Z,15.98
2022-08-28T12:02:33.438Z,15.20
2022-08-28T12:05:00.596Z,14.65
2022-08-28T12:07:34.806Z,15.13
2022-08-28T12:10:05.282Z,14.15
2022-08-28T12:12:47.455Z,13.52
2022-08-28T12:15:26.644Z,14.70
2022-08-28T12:17:58.616Z,14.07
2022-08-28T12:20:44.394Z,12.27
2022-08-28T12:23:23.808Z,13.77
2022-08-28T12:25:52.140Z,12.35
2022-08-28T12:28:25.977Z,11.90
2022-08-28T12:33:52.741Z,12.63
2022-08-28T12:36:26.519Z,10.82
2022-08-28T12:38:55.188Z,12.02
2022-08-28T12:41:24.501Z,11.65
2022-08-28T12:43:55.563Z,10.73
2022-08-28T12:46:23.351Z,11.90
2022-08-28T12:49:01.138Z,11.77
2022-08-28T12:51:29.498Z,11.77
2022-08-28T12:53:58.359Z,12.55
2022-08-28T12:56:26.693Z,12.75
2022-08-28T12:58:53.829Z,13.07
2022-08-28T13:01:26.465Z,13.30
2022-08-28T13:03:55.312Z,12.98
2022-08-28T13:06:28.955Z,13.35
2022-08-28T13:09:04.766Z,13.05
2022-08-28T13:11:34.644Z,13.02
2022-08-28T13:14:01.780Z,13.55
2022-08-28T13:16:40.397Z,13.40
2022-08-28T13:19:07.962Z,12.77
2022-08-28T13:21:37.191Z,14.10
2022-08-28T13:24:22.800Z,11.82
2022-08-28T13:27:01.533Z,13.55
2022-08-28T13:29:28.839Z,13.32
2022-08-28T13:31:58.507Z,12.82
2022-08-28T13:34:27.447Z,13.30
2022-08-28T13:36:57.970Z,12.77
2022-08-28T13:39:25.048Z,11.48
2022-08-28T13:42:00.127Z,12.23
2022-08-28T13:44:32.574Z,12.23
2022-08-28T13:47:00.405Z,12.85
2022-08-28T13:49:28.075Z,11.90
2022-08-28T13:51:56.102Z,12.82
2022-08-28T13:54:24.007Z,12.93
2022-08-28T13:56:53.121Z,10.90
2022-08-28T13:59:20.774Z,11.30
2022-08-28T14:02:06.588Z,11.38
2022-08-28T14:04:33.729Z,10.80
2022-08-28T14:07:00.872Z,11.85
2022-08-28T14:09:28.019Z,12.20
2022-08-28T14:11:55.715Z,10.57
2022-08-28T14:14:22.992Z,10.05
2022-08-28T14:16:52.575Z,10.63
2022-08-28T14:19:19.918Z,10.88
2022-08-28T14:21:47.111Z,10.55
2022-08-28T14:24:14.233Z,11.80
2022-08-28T14:26:42.055Z,10.80
2022-08-28T14:29:10.374Z,10.02
2022-08-28T14:31:37.708Z,11.00
2022-08-28T14:34:05.937Z,11.00
2022-08-28T14:36:33.102Z,9.88
2022-08-28T14:39:05.831Z,10.10
2022-08-28T14:41:34.308Z,11.63
2022-08-28T14:44:01.412Z,10.35
2022-08-28T14:46:30.374Z,10.80
2022-08-28T14:49:09.043Z,10.60
2022-08-28T14:51:37.232Z,10.55
2022-08-28T14:54:05.322Z,11.75
2022-08-28T14:56:32.884Z,10.50
2022-08-28T14:59:00.518Z,11.20
2022-08-28T15:01:39.777Z,10.90
2022-08-28T15:04:09.787Z,10.63
2022-08-28T15:06:37.064Z,10.10
2022-08-28T15:09:04.249Z,9.32
2022-08-28T15:11:31.445Z,8.93
2022-08-28T15:13:59.325Z,9.18
2022-08-28T15:16:30.283Z,9.38
2022-08-28T15:18:58.285Z,7.50
2022-08-28T15:21:32.916Z,7.60
2022-08-28T15:24:01.056Z,7.93
2022-08-28T15:26:28.544Z,7.03
2022-08-28T15:28:58.199Z,7.82
2022-08-28T15:31:25.491Z,8.25
2022-08-28T15:33:52.864Z,8.73
2022-08-28T15:36:20.058Z,8.75
2022-08-28T15:39:05.754Z,7.75
2022-08-28T15:41:32.920Z,8.15
2022-08-28T15:44:01.675Z,8.35
2022-08-28T15:46:33.624Z,7.00
2022-08-28T15:49:05.366Z,6.82
2022-08-28T15:51:36.206Z,8.20
2022-08-28T15:54:02.899Z,7.35
2022-08-28T15:56:29.620Z,7.65
2022-08-28T15:58:56.562Z,8.60
2022-08-28T16:01:23.302Z,7.63
2022-08-28T16:03:50.042Z,8.40
2022-08-28T16:06:19.902Z,8.93
2022-08-28T16:08:47.495Z,8.65
2022-08-28T16:11:22.976Z,8.13
2022-08-28T16:13:51.087Z,8.65
2022-08-28T16:16:18.751Z,7.90
2022-08-28T16:18:45.700Z,8.80
2022-08-28T16:21:13.226Z,10.48
2022-08-28T16:23:40.022Z,9.82
2022-08-28T16:26:07.395Z,9.25
2022-08-28T16:28:35.477Z,10.35
2022-08-28T16:31:07.353Z,15.07
2022-08-28T16:33:34.980Z,10.20
2022-08-28T16:36:07.527Z,10.10
2022-08-28T16:38:37.433Z,8.23
2022-08-28T16:41:04.118Z,6.78
2022-08-28T16:43:30.811Z,7.80
2022-08-28T16:45:57.556Z,7.10
2022-08-28T16:48:24.168Z,8.00
2022-08-28T16:50:50.805Z,7.57
2022-08-28T16:53:20.059Z,7.78
2022-08-28T16:55:53.767Z,8.10
2022-08-28T16:58:20.647Z,7.30
2022-08-28T17:00:52.905Z,8.43
2022-08-28T17:03:26.168Z,7.95
2022-08-28T17:05:54.949Z,8.65
2022-08-28T17:08:21.797Z,8.90
2022-08-28T17:10:48.483Z,8.55
2022-08-28T17:13:15.325Z,9.45
2022-08-28T17:15:42.119Z,8.75
2022-08-28T17:18:08.945Z,9.18
2022-08-28T17:20:54.051Z,9.20
2022-08-28T17:23:20.740Z,8.52
2022-08-28T17:25:47.468Z,9.38
2022-08-28T17:28:15.239Z,10.02
2022-08-28T17:30:41.996Z,9.15
2022-08-28T17:33:08.840Z,9.80
2022-08-28T17:35:41.878Z,9.60
2022-08-28T17:38:08.993Z,9.43
2022-08-28T17:40:35.942Z,8.63
2022-08-28T17:43:03.557Z,8.85
2022-08-28T17:45:30.194Z,10.02
2022-08-28T17:47:57.014Z,9.68
2022-08-28T17:50:24.033Z,9.48
2022-08-28T17:52:50.711Z,9.82
2022-08-28T17:55:19.192Z,9.70
2022-08-28T17:57:45.855Z,9.48
2022-08-28T18:00:16.226Z,9.13
2022-08-28T18:02:44.318Z,9.40
2022-08-28T18:05:13.296Z,8.85
2022-08-28T18:07:40.334Z,9.60
2022-08-28T18:10:09.478Z,9.13
2022-08-28T18:12:36.131Z,9.95
2022-08-28T18:15:03.596Z,11.23
2022-08-28T18:17:30.374Z,9.80
2022-08-28T18:19:57.353Z,10.90
2022-08-28T18:22:29.005Z,10.13
2022-08-28T18:24:56.423Z,9.90
2022-08-28T18:27:26.443Z,10.13
2022-08-28T18:29:53.695Z,9.60
2022-08-28T18:32:20.351Z,10.50
2022-08-28T18:34:47.101Z,10.40
2022-08-28T18:37:13.781Z,10.68
2022-08-28T18:39:40.472Z,11.30
2022-08-28T18:42:09.689Z,11.80
2022-08-28T18:44:36.355Z,11.38
2022-08-28T18:47:03.107Z,10.43
2022-08-28T18:49:29.834Z,10.73
2022-08-28T18:51:56.491Z,10.38
2022-08-28T18:54:23.302Z,10.23
2022-08-28T18:56:50.526Z,10.50
2022-08-28T18:59:17.751Z,10.15
2022-08-28T19:01:44.795Z,9.75
2022-08-28T19:04:11.578Z,10.70
2022-08-28T19:06:40.054Z,11.10
2022-08-28T19:09:06.748Z,11.90
2022-08-28T19:11:33.835Z,11.30
2022-08-28T19:14:03.810Z,11.38
2022-08-28T19:16:32.039Z,11.60
2022-08-28T19:18:58.736Z,11.60
2022-08-28T19:21:26.453Z,10.80
2022-08-28T19:23:55.625Z,11.55
2022-08-28T19:26:24.505Z,12.10
2022-08-28T19:28:51.490Z,11.57
2022-08-28T19:31:18.646Z,10.23
2022-08-28T19:33:47.052Z,11.77
2022-08-28T19:36:15.304Z,12.38
2022-08-28T19:38:42.452Z,11.23
2022-08-28T19:41:11.189Z,11.60
2022-08-28T19:43:44.574Z,11.93
2022-08-28T19:46:19.328Z,10.80
2022-08-28T19:48:48.013Z,10.75
2022-08-28T19:51:17.677Z,10.35
2022-08-28T19:53:56.798Z,11.27
2022-08-28T19:56:27.562Z,11.32
2022-08-28T19:58:54.963Z,11.93
2022-08-28T20:01:21.762Z,11.98
2022-08-28T20:03:48.576Z,12.30
2022-08-28T20:06:15.239Z,12.05
2022-08-28T20:08:41.916Z,10.20
2022-08-28T20:11:09.650Z,12.38
2022-08-28T20:13:36.351Z,10.30
2022-08-28T20:16:04.724Z,10.30
2022-08-28T20:18:31.437Z,11.35
2022-08-28T20:20:58.070Z,10.25
2022-08-28T20:23:24.742Z,10.93
2022-08-28T20:25:51.610Z,10.13
2022-08-28T20:28:19.399Z,10.82
2022-08-28T20:30:46.727Z,10.85
2022-08-28T20:33:13.636Z,11.18
2022-08-28T20:35:40.418Z,10.95
2022-08-28T20:38:07.349Z,11.75
2022-08-28T20:40:34.233Z,10.43
2022-08-28T20:43:01.051Z,10.65
2022-08-28T20:45:28.329Z,11.20
2022-08-28T20:47:54.949Z,10.43
2022-08-28T20:50:21.593Z,10.80
2022-08-28T20:52:48.279Z,12.05
2022-08-28T20:55:14.966Z,9.85
2022-08-28T20:57:41.979Z,12.57
2022-08-28T21:00:10.415Z,11.32
2022-08-28T21:02:37.475Z,12.57
2022-08-28T21:05:05.231Z,11.50
2022-08-28T21:07:33.980Z,12.15
2022-08-28T21:10:06.625Z,12.90
2022-08-28T21:12:38.497Z,12.32
2022-08-28T21:15:08.341Z,12.10
2022-08-28T21:17:35.060Z,11.55
2022-08-28T21:20:05.781Z,12.35
2022-08-28T21:22:35.242Z,11.27
2022-08-28T21:25:04.310Z,12.27
2022-08-28T21:27:31.042Z,11.77
2022-08-28T21:29:59.815Z,12.25
2022-08-28T21:32:27.739Z,11.02
2022-08-28T21:34:55.085Z,10.10
2022-08-28T21:37:22.592Z,11.77
2022-08-28T21:39:49.372Z,11.18
2022-08-28T21:42:16.075Z,10.75
2022-08-28T21:44:48.305Z,12.68
2022-08-28T21:47:21.354Z,10.15
2022-08-28T21:49:50.055Z,10.43
2022-08-28T21:52:18.279Z,10.93
2022-08-28T21:54:44.984Z,10.40
2022-08-28T21:57:11.723Z,10.13
2022-08-28T21:59:38.898Z,10.57
2022-08-28T22:02:06.364Z,10.55
2022-08-28T22:04:33.687Z,9.65
2022-08-28T22:07:00.404Z,11.43
2022-08-28T22:09:27.201Z,11.60
2022-08-28T22:11:53.895Z,11.27
2022-08-28T22:14:20.970Z,11.10
2022-08-28T22:16:47.798Z,10.13
2022-08-28T22:19:14.535Z,10.38
2022-08-28T22:22:00.002Z,11.07
2022-08-28T22:24:26.658Z,10.95
2022-08-28T22:26:57.538Z,9.93
2022-08-28T22:29:24.799Z,9.90
2022-08-28T22:31:52.423Z,11.02
2022-08-28T22:34:19.116Z,11.68
2022-08-28T22:36:45.774Z,10.55
2022-08-28T22:39:12.421Z,10.43
2022-08-28T22:41:39.060Z,10.02
2022-08-28T22:44:06.995Z,10.23
2022-08-28T22:46:33.675Z,9.48
2022-08-28T22:49:00.381Z,11.80
2022-08-28T22:51:27.056Z,10.75
2022-08-28T22:53:54.411Z,10.93
2022-08-28T22:56:21.480Z,10.23
2022-08-28T22:58:48.145Z,10.82
2022-08-28T23:01:19.440Z,10.25
2022-08-28T23:03:46.795Z,9.32
2022-08-28T23:06:13.861Z,11.18
2022-08-28T23:08:40.992Z,10.50
2022-08-28T23:11:07.829Z,9.57
2022-08-28T23:13:34.811Z,12.38
2022-08-28T23:16:02.087Z,10.93
2022-08-28T23:18:38.005Z,10.27
2022-08-28T23:21:13.230Z,9.88
2022-08-28T23:23:39.892Z,10.75
2022-08-28T23:26:11.848Z,11.35
2022-08-28T23:28:39.047Z,10.38
2022-08-28T23:31:05.846Z,10.60
2022-08-28T23:33:32.667Z,11.38
2022-08-28T23:35:59.394Z,10.45
2022-08-28T23:38:26.140Z,10.90
2022-08-28T23:40:52.886Z,11.80
2022-08-28T23:43:19.623Z,9.68
2022-08-28T23:45:46.798Z,10.13
2022-08-28T23:48:15.147Z,10.75
2022-08-28T23:50:42.459Z,10.10
2022-08-28T23:53:10.153Z,9.82
2022-08-28T23:55:36.807Z,11.15
2022-08-28T23:58:04.058Z,11.27
